Time;durP1;ratioP1;P1;durP2;ratioP2;P2;SDS_P1;SDS_P2;PMS_P1;PMS_P2;Temp;Humidity;BMP_temperature;BMP_pressure;BME280_temperature;BME280_humidity;BME280_pressure;Samples;Min_cycle;Max_cycle;Signal;HPM_P1;HPM_P2
2020/12/19 00:02:01;;;;;;;15.13;7.55;;;9.80;88.30;;;;;;4977732;28;20034;-51
2020/12/19 00:04:26;;;;;;;29.33;12.00;;;9.70;88.30;;;;;;4978778;28;20468;-52
2020/12/19 00:06:52;;;;;;;20.27;7.85;;;9.80;88.30;;;;;;4973724;28;20028;-52
2020/12/19 00:09:17;;;;;;;18.23;7.82;;;9.70;88.30;;;;;;4978933;28;20408;-52
2020/12/19 00:11:43;;;;;;;15.27;6.63;;;9.70;88.30;;;;;;4979296;28;20034;-52
2020/12/19 00:14:09;;;;;;;9.93;4.85;;;9.70;88.20;;;;;;4977322;28;20118;-52
2020/12/19 00:16:35;;;;;;;18.50;7.38;;;9.70;88.30;;;;;;4969961;28;20479;-52
2020/12/19 00:19:00;;;;;;;8.85;5.43;;;9.70;88.30;;;;;;4974084;28;20352;-52
2020/12/19 00:21:33;;;;;;;18.52;7.18;;;9.70;88.30;;;;;;4967444;28;20102;-52
2020/12/19 00:23:59;;;;;;;13.30;6.88;;;9.70;88.20;;;;;;4970493;28;20026;-52
2020/12/19 00:26:52;;;;;;;11.32;6.20;;;9.70;88.20;;;;;;4978867;28;20031;-52
2020/12/19 00:29:17;;;;;;;10.93;5.75;;;9.70;88.20;;;;;;4972433;28;20066;-51
2020/12/19 00:31:43;;;;;;;10.25;5.55;;;9.70;88.30;;;;;;4974891;28;20059;-51
2020/12/19 00:34:10;;;;;;;9.63;5.85;;;9.70;88.30;;;;;;4965949;28;20034;-52
2020/12/19 00:36:35;;;;;;;7.85;4.57;;;9.70;88.20;;;;;;4978709;28;20081;-52
2020/12/19 00:39:04;;;;;;;10.90;5.80;;;9.70;88.10;;;;;;4978441;28;20054;-52
2020/12/19 00:41:30;;;;;;;11.25;5.47;;;9.70;88.90;;;;;;4977759;28;20030;-52
2020/12/19 00:43:55;;;;;;;10.68;4.75;;;9.70;88.10;;;;;;4977999;28;20026;-52
2020/12/19 00:46:22;;;;;;;9.95;5.57;;;9.70;88.20;;;;;;4978748;28;20549;-52
2020/12/19 00:48:48;;;;;;;11.73;4.65;;;9.70;88.10;;;;;;4970906;28;20031;-52
2020/12/19 00:51:19;;;;;;;10.15;5.30;;;9.70;88.20;;;;;;4978328;28;20353;-52
2020/12/19 00:53:46;;;;;;;10.00;5.35;;;9.70;88.10;;;;;;4977852;28;20038;-52
2020/12/19 00:56:26;;;;;;;11.35;6.20;;;9.70;88.20;;;;;;4977213;28;20420;-52
2020/12/19 00:58:53;;;;;;;14.93;6.05;;;9.70;88.10;;;;;;4974086;28;20453;-52
2020/12/19 01:01:21;;;;;;;15.20;6.45;;;9.70;88.00;;;;;;4975589;28;20031;-52
2020/12/19 01:03:48;;;;;;;12.57;6.03;;;9.70;88.20;;;;;;4977384;28;20023;-52
2020/12/19 01:06:15;;;;;;;9.45;5.55;;;9.70;88.20;;;;;;4978185;28;20061;-52
2020/12/19 01:08:42;;;;;;;12.93;6.10;;;9.70;88.10;;;;;;4977271;28;20023;-52
2020/12/19 01:11:13;;;;;;;10.38;5.93;;;9.70;88.10;;;;;;4978378;28;20054;-52
2020/12/19 01:13:39;;;;;;;12.00;6.38;;;9.70;88.10;;;;;;4961637;28;20027;-52
2020/12/19 01:16:05;;;;;;;12.18;5.95;;;9.70;88.10;;;;;;4978167;28;20470;-52
2020/12/19 01:18:30;;;;;;;14.27;5.95;;;9.70;88.00;;;;;;4977409;28;20109;-52
2020/12/19 01:20:56;;;;;;;10.60;5.32;;;9.70;88.10;;;;;;4972022;28;20045;-52
2020/12/19 01:23:21;;;;;;;11.18;5.63;;;9.70;88.10;;;;;;4962405;28;20028;-52
2020/12/19 01:25:47;;;;;;;13.23;6.45;;;9.70;88.00;;;;;;4975853;28;20077;-52
2020/12/19 01:28:13;;;;;;;12.82;5.80;;;9.70;88.00;;;;;;4966412;28;20035;-51
2020/12/19 01:30:38;;;;;;;15.15;6.10;;;9.70;88.00;;;;;;4977890;28;20026;-52
2020/12/19 01:33:04;;;;;;;11.40;5.30;;;9.70;88.00;;;;;;4977736;28;20027;-52
2020/12/19 01:35:30;;;;;;;9.30;5.05;;;9.70;87.80;;;;;;4974703;28;20038;-52
2020/12/19 01:37:55;;;;;;;13.20;5.47;;;9.70;87.90;;;;;;4964328;28;20362;-52
2020/12/19 01:40:21;;;;;;;10.35;5.18;;;9.70;88.00;;;;;;4972247;28;20035;-52
2020/12/19 01:42:46;;;;;;;11.07;5.35;;;9.70;88.00;;;;;;4977751;28;20027;-52
2020/12/19 01:45:12;;;;;;;13.02;6.35;;;9.70;87.90;;;;;;4976477;28;20407;-52
2020/12/19 01:47:38;;;;;;;11.77;6.50;;;9.70;87.90;;;;;;4972109;28;20489;-52
2020/12/19 01:50:08;;;;;;;12.73;5.90;;;9.70;87.90;;;;;;4970185;28;20035;-52
2020/12/19 01:52:36;;;;;;;10.93;5.40;;;9.70;87.90;;;;;;4977433;28;20165;-51
2020/12/19 01:55:03;;;;;;;10.23;5.45;;;9.70;87.80;;;;;;4973440;28;20043;-52
2020/12/19 01:57:32;;;;;;;10.13;6.03;;;9.70;88.00;;;;;;4977241;28;20022;-52
2020/12/19 01:59:59;;;;;;;9.45;5.65;;;9.70;87.90;;;;;;4965409;28;20031;-52
2020/12/19 02:02:25;;;;;;;9.18;5.13;;;9.70;87.80;;;;;;4966720;28;20474;-52
2020/12/19 02:04:53;;;;;;;10.88;5.97;;;9.60;87.80;;;;;;4976299;28;20452;-52
2020/12/19 02:07:19;;;;;;;11.55;6.05;;;9.70;87.90;;;;;;4977067;28;20117;-52
2020/12/19 02:09:45;;;;;;;10.82;6.13;;;9.70;87.80;;;;;;4973080;28;20035;-52
2020/12/19 02:12:11;;;;;;;11.85;5.90;;;9.70;87.80;;;;;;4977077;28;20023;-52
2020/12/19 02:14:37;;;;;;;10.75;4.90;;;9.70;87.90;;;;;;4976298;28;20074;-52
2020/12/19 02:17:03;;;;;;;9.63;5.55;;;9.70;87.70;;;;;;4975732;28;20194;-51
2020/12/19 02:19:30;;;;;;;10.68;5.75;;;9.60;87.70;;;;;;4976335;28;20029;-51
2020/12/19 02:21:56;;;;;;;12.25;6.03;;;9.70;87.80;;;;;;4976883;28;20026;-52
2020/12/19 02:24:22;;;;;;;15.68;6.28;;;9.70;87.90;;;;;;4970767;28;20373;-52
2020/12/19 02:26:52;;;;;;;14.48;6.97;;;9.70;87.80;;;;;;4970234;28;20027;-52
2020/12/19 02:29:18;;;;;;;16.42;6.03;;;9.60;87.60;;;;;;4973162;28;20039;-52
2020/12/19 02:31:45;;;;;;;18.95;6.35;;;9.70;87.80;;;;;;4972575;28;20019;-51
2020/12/19 02:34:11;;;;;;;15.32;7.15;;;9.60;87.70;;;;;;4958660;28;20477;-52
2020/12/19 02:36:38;;;;;;;12.88;6.32;;;9.70;87.80;;;;;;4975589;28;20070;-51
2020/12/19 02:39:05;;;;;;;11.18;5.60;;;9.60;87.80;;;;;;4975083;28;20037;-52
2020/12/19 02:41:37;;;;;;;14.43;5.53;;;9.70;87.70;;;;;;4972093;28;20165;-52
2020/12/19 02:44:03;;;;;;;8.10;5.13;;;9.60;87.70;;;;;;4958026;28;20106;-52
2020/12/19 02:46:30;;;;;;;10.32;5.10;;;9.60;87.60;;;;;;4961454;28;20466;-52
2020/12/19 02:48:56;;;;;;;8.77;4.78;;;9.60;87.60;;;;;;4968907;28;20169;-52
2020/12/19 02:51:22;;;;;;;9.45;5.03;;;9.60;87.60;;;;;;4976453;28;20019;-52
2020/12/19 02:53:47;;;;;;;10.45;4.68;;;9.70;87.70;;;;;;4976527;28;20027;-52
2020/12/19 02:56:13;;;;;;;11.88;5.25;;;9.60;87.60;;;;;;4958833;28;20046;-52
2020/12/19 02:58:38;;;;;;;7.78;4.15;;;9.70;87.60;;;;;;4956829;29;20453;-52
2020/12/19 03:01:04;;;;;;;7.03;4.88;;;9.60;87.60;;;;;;4968320;28;20388;-51
2020/12/19 03:03:30;;;;;;;10.18;5.38;;;9.60;87.50;;;;;;4976001;28;20054;-52
2020/12/19 03:05:55;;;;;;;10.90;5.63;;;9.60;87.60;;;;;;4960376;28;20090;-52
2020/12/19 03:08:21;;;;;;;10.90;6.03;;;9.60;87.60;;;;;;4956854;29;20027;-52
2020/12/19 03:10:47;;;;;;;11.13;5.63;;;9.70;87.80;;;;;;4956917;29;20031;-52
2020/12/19 03:13:12;;;;;;;11.13;6.15;;;9.60;87.50;;;;;;4956872;29;20465;-52
2020/12/19 03:15:38;;;;;;;11.48;5.72;;;9.60;87.50;;;;;;4969319;28;20046;-52
2020/12/19 03:18:04;;;;;;;10.68;5.82;;;9.60;87.40;;;;;;4975123;28;20033;-52
2020/12/19 03:20:29;;;;;;;12.57;6.88;;;9.70;87.60;;;;;;4956903;28;20118;-52
2020/12/19 03:22:55;;;;;;;15.18;7.65;;;9.60;87.40;;;;;;4956901;29;20503;-52
2020/12/19 03:25:21;;;;;;;12.00;5.40;;;9.60;87.50;;;;;;4960619;28;20035;-52
2020/12/19 03:27:46;;;;;;;11.23;6.05;;;9.60;87.50;;;;;;4965589;28;20034;-51
2020/12/19 03:30:12;;;;;;;13.40;6.25;;;9.60;87.40;;;;;;4955464;29;20044;-52
2020/12/19 03:32:38;;;;;;;11.63;6.20;;;9.60;87.40;;;;;;4957404;28;20353;-51
2020/12/19 03:35:04;;;;;;;17.65;6.45;;;9.60;87.50;;;;;;4963887;28;20464;-52
2020/12/19 03:37:33;;;;;;;21.15;7.63;;;9.60;87.50;;;;;;4975589;28;20405;-52
2020/12/19 03:39:59;;;;;;;15.60;7.18;;;9.60;87.50;;;;;;4975552;28;20054;-52
2020/12/19 03:42:25;;;;;;;16.73;6.68;;;9.60;87.50;;;;;;4975018;28;20035;-52
2020/12/19 03:44:51;;;;;;;10.45;5.72;;;9.60;87.40;;;;;;4967700;28;20019;-52
2020/12/19 03:47:16;;;;;;;12.15;6.05;;;9.60;87.40;;;;;;4975962;28;20352;-52
2020/12/19 03:49:42;;;;;;;15.32;7.60;;;9.60;87.60;;;;;;4965440;28;20078;-52
2020/12/19 03:52:08;;;;;;;12.82;6.22;;;9.60;87.50;;;;;;4975721;28;20029;-52
2020/12/19 03:54:33;;;;;;;12.75;6.55;;;9.60;87.50;;;;;;4970671;28;20479;-52
2020/12/19 03:56:59;;;;;;;16.98;6.68;;;9.60;87.40;;;;;;4954687;29;20039;-52
2020/12/19 03:59:25;;;;;;;14.05;6.10;;;9.60;87.30;;;;;;4953442;28;20031;-52
2020/12/19 04:01:50;;;;;;;14.88;6.13;;;9.60;87.30;;;;;;4954492;29;20349;-52
2020/12/19 04:04:16;;;;;;;18.27;7.43;;;9.60;87.30;;;;;;4957406;28;20035;-52
2020/12/19 04:06:41;;;;;;;12.15;5.38;;;9.60;87.50;;;;;;4974529;28;20027;-52
2020/12/19 04:09:07;;;;;;;12.07;6.03;;;9.60;87.60;;;;;;4975211;28;20046;-52
2020/12/19 04:11:33;;;;;;;12.70;5.85;;;9.60;87.40;;;;;;4975623;28;20106;-52
2020/12/19 04:13:58;;;;;;;16.80;6.30;;;9.60;87.40;;;;;;4975326;28;20031;-52
2020/12/19 04:16:24;;;;;;;11.35;6.25;;;9.60;87.30;;;;;;4956725;28;20131;-52
2020/12/19 04:18:49;;;;;;;17.00;6.63;;;9.60;87.50;;;;;;4955863;28;20032;-51
2020/12/19 04:21:15;;;;;;;11.70;5.95;;;9.60;87.50;;;;;;4959577;28;20062;-52
2020/12/19 04:23:41;;;;;;;13.35;6.55;;;9.60;87.40;;;;;;4965672;28;20110;-52
2020/12/19 04:26:06;;;;;;;16.40;6.57;;;9.60;87.30;;;;;;4966124;28;20015;-52
2020/12/19 04:28:32;;;;;;;13.43;5.97;;;9.60;87.50;;;;;;4962690;28;20480;-52
2020/12/19 04:30:57;;;;;;;12.93;5.65;;;9.60;87.50;;;;;;4956121;29;20020;-52
2020/12/19 04:33:24;;;;;;;13.38;6.45;;;9.60;87.30;;;;;;4964492;28;20469;-52
2020/12/19 04:35:50;;;;;;;15.45;6.15;;;9.60;87.40;;;;;;4965736;28;20123;-52
2020/12/19 04:38:16;;;;;;;15.57;6.90;;;9.60;87.30;;;;;;4964212;28;20416;-52
2020/12/19 04:40:42;;;;;;;14.32;5.72;;;9.60;87.90;;;;;;4966795;28;20476;-52
2020/12/19 04:43:19;;;;;;;15.43;6.93;;;9.60;87.40;;;;;;4968358;28;20103;-52
2020/12/19 04:45:45;;;;;;;16.88;8.35;;;9.60;87.20;;;;;;4969834;28;20523;-52
2020/12/19 04:48:11;;;;;;;12.02;6.00;;;9.60;87.30;;;;;;4968524;28;20031;-52
2020/12/19 04:50:39;;;;;;;18.33;6.28;;;9.60;87.30;;;;;;4969276;28;20029;-52
2020/12/19 04:53:16;;;;;;;14.27;7.55;;;9.60;87.30;;;;;;4965804;28;20056;-51
2020/12/19 04:55:42;;;;;;;14.95;6.82;;;9.60;87.20;;;;;;4977289;28;20049;-52
2020/12/19 04:58:14;;;;;;;12.32;5.88;;;9.60;87.10;;;;;;4978717;28;20107;-51
2020/12/19 05:00:40;;;;;;;12.40;6.25;;;9.60;87.30;;;;;;4979053;28;20034;-52
2020/12/19 05:03:06;;;;;;;14.25;6.75;;;9.60;87.20;;;;;;4978185;28;20409;-52
2020/12/19 05:05:39;;;;;;;12.18;5.85;;;9.60;87.20;;;;;;4968164;28;20039;-52
2020/12/19 05:08:05;;;;;;;13.20;6.45;;;9.60;87.20;;;;;;4959108;29;20054;-52
2020/12/19 05:10:31;;;;;;;9.43;5.75;;;9.60;87.10;;;;;;4959221;28;20039;-52
2020/12/19 05:12:57;;;;;;;9.38;5.18;;;9.60;87.10;;;;;;4959503;29;20031;-52
2020/12/19 05:15:23;;;;;;;10.55;6.13;;;9.60;87.20;;;;;;4958782;29;20093;-52
2020/12/19 05:17:53;;;;;;;10.73;5.78;;;9.60;87.30;;;;;;4958922;28;20027;-53
2020/12/19 05:20:22;;;;;;;9.43;4.88;;;9.60;87.10;;;;;;4958711;28;20031;-53
2020/12/19 05:22:52;;;;;;;12.23;5.70;;;9.60;87.10;;;;;;4958574;29;20028;-52
2020/12/19 05:25:20;;;;;;;12.63;6.00;;;9.60;87.00;;;;;;4959097;28;20031;-52
2020/12/19 05:27:48;;;;;;;9.25;4.10;;;9.60;87.10;;;;;;4958874;28;20034;-53
2020/12/19 05:30:15;;;;;;;10.15;4.55;;;9.60;87.00;;;;;;4958665;29;20034;-52
2020/12/19 05:32:49;;;;;;;5.57;4.05;;;9.60;86.90;;;;;;4958563;29;20019;-52
2020/12/19 05:35:17;;;;;;;7.32;4.38;;;9.60;87.00;;;;;;4965025;28;20137;-52
2020/12/19 05:37:43;;;;;;;5.93;3.75;;;9.60;86.90;;;;;;4977729;28;20034;-52
2020/12/19 05:40:11;;;;;;;8.07;3.83;;;9.60;86.90;;;;;;4976351;28;20035;-53
2020/12/19 05:42:38;;;;;;;7.32;4.68;;;9.60;87.10;;;;;;4957819;28;20023;-52
2020/12/19 05:45:18;;;;;;;10.80;5.65;;;9.60;86.70;;;;;;4963196;28;20039;-52
2020/12/19 05:47:44;;;;;;;16.13;5.93;;;9.60;86.80;;;;;;4975157;28;20045;-52
2020/12/19 05:50:11;;;;;;;11.90;5.53;;;9.60;86.70;;;;;;4957951;29;20094;-52
2020/12/19 05:52:40;;;;;;;10.52;5.63;;;9.60;86.60;;;;;;4957432;28;20037;-52
2020/12/19 05:55:09;;;;;;;13.75;5.93;;;9.60;86.60;;;;;;4963106;28;20487;-52
2020/12/19 05:57:37;;;;;;;11.50;5.20;;;9.60;86.60;;;;;;4969454;28;20413;-52
2020/12/19 06:00:15;;;;;;;12.40;6.43;;;9.60;86.70;;;;;;4958917;28;20463;-52
2020/12/19 06:02:40;;;;;;;9.68;4.85;;;9.60;86.60;;;;;;4958345;29;20035;-53
2020/12/19 06:05:12;;;;;;;10.70;5.47;;;9.60;86.70;;;;;;4963100;28;20031;-52
2020/12/19 06:07:42;;;;;;;8.45;5.10;;;9.60;86.70;;;;;;4977682;28;20029;-53
2020/12/19 06:10:14;;;;;;;7.95;4.68;;;9.60;86.60;;;;;;4962220;28;20033;-52
2020/12/19 06:12:54;;;;;;;11.25;5.38;;;9.60;86.60;;;;;;4968782;28;20039;-52
2020/12/19 06:15:38;;;;;;;11.75;6.45;;;9.60;86.60;;;;;;4971285;28;20027;-52
2020/12/19 06:18:15;;;;;;;14.30;5.30;;;9.60;86.60;;;;;;4970425;28;20050;-52
2020/12/19 06:20:41;;;;;;;10.75;5.78;;;9.60;86.60;;;;;;4961053;28;20023;-52
2020/12/19 06:23:14;;;;;;;7.72;4.72;;;9.60;86.60;;;;;;4965154;28;20090;-52
2020/12/19 06:25:41;;;;;;;9.80;5.05;;;9.60;86.50;;;;;;4969623;28;20062;-52
2020/12/19 06:28:07;;;;;;;8.52;4.82;;;9.60;86.60;;;;;;4965064;28;20058;-52
2020/12/19 06:30:33;;;;;;;10.05;5.57;;;9.60;86.60;;;;;;4964607;28;20094;-52
2020/12/19 06:33:13;;;;;;;7.00;4.22;;;9.60;86.60;;;;;;4969051;28;20114;-52
2020/12/19 06:35:47;;;;;;;9.25;4.43;;;9.60;86.50;;;;;;4962898;28;20097;-52
2020/12/19 06:38:13;;;;;;;9.43;4.55;;;9.60;86.40;;;;;;4965755;28;20097;-52
2020/12/19 06:40:39;;;;;;;7.88;5.22;;;9.60;86.50;;;;;;4971501;28;20464;-52
2020/12/19 06:43:14;;;;;;;9.98;5.10;;;9.60;86.50;;;;;;4967661;28;20039;-53
2020/12/19 06:45:41;;;;;;;8.23;4.53;;;9.60;86.40;;;;;;4968851;28;20037;-52
2020/12/19 06:48:29;;;;;;;6.80;4.43;;;9.60;86.50;;;;;;4975954;28;20027;-52
2020/12/19 06:51:04;;;;;;;6.80;4.13;;;9.60;86.50;;;;;;4957077;29;20038;-52
2020/12/19 06:53:31;;;;;;;8.65;4.25;;;9.60;86.50;;;;;;4956937;29;20037;-52
2020/12/19 06:55:58;;;;;;;8.50;4.93;;;9.60;86.60;;;;;;4966352;28;20070;-53
2020/12/19 06:58:33;;;;;;;9.35;5.40;;;9.60;86.50;;;;;;4957868;28;20491;-53
2020/12/19 07:01:00;;;;;;;10.00;5.70;;;9.60;86.60;;;;;;4968274;28;20060;-52
2020/12/19 07:03:41;;;;;;;10.35;5.35;;;9.60;86.50;;;;;;4969939;28;20089;-52
2020/12/19 07:06:15;;;;;;;9.10;5.18;;;9.60;86.60;;;;;;4961727;28;20107;-52
2020/12/19 07:08:42;;;;;;;10.73;4.80;;;9.60;86.50;;;;;;4956578;28;20027;-52
2020/12/19 07:11:31;;;;;;;10.65;5.45;;;9.60;86.50;;;;;;4972321;28;20027;-52
2020/12/19 07:13:57;;;;;;;10.57;5.07;;;9.60;86.50;;;;;;4975874;28;20090;-52
2020/12/19 07:16:43;;;;;;;7.80;4.78;;;9.60;86.50;;;;;;4966951;28;20031;-52
2020/12/19 07:19:26;;;;;;;11.82;5.20;;;9.60;86.40;;;;;;4975794;28;20031;-53
2020/12/19 07:21:56;;;;;;;8.18;4.93;;;9.60;86.30;;;;;;4965133;28;20062;-52
2020/12/19 07:24:23;;;;;;;7.60;4.50;;;9.60;86.40;;;;;;4975836;28;20078;-52
2020/12/19 07:26:50;;;;;;;9.50;5.35;;;9.60;86.40;;;;;;4970044;28;20488;-52
2020/12/19 07:29:20;;;;;;;10.70;5.03;;;9.60;86.40;;;;;;4974906;28;20038;-52
2020/12/19 07:31:54;;;;;;;6.88;4.07;;;9.60;86.40;;;;;;4960683;28;20114;-52
2020/12/19 07:34:21;;;;;;;6.95;4.38;;;9.60;86.40;;;;;;4971876;28;20062;-53
2020/12/19 07:36:48;;;;;;;10.52;4.82;;;9.60;86.40;;;;;;4958217;28;20038;-52
2020/12/19 07:39:16;;;;;;;11.02;5.97;;;9.60;86.60;;;;;;4956278;29;20088;-52
2020/12/19 07:41:46;;;;;;;5.20;3.63;;;9.60;86.40;;;;;;4962914;28;20041;-53
2020/12/19 07:44:18;;;;;;;6.63;3.80;;;9.60;86.40;;;;;;4963912;28;20027;-52
2020/12/19 07:47:09;;;;;;;7.32;4.07;;;9.60;86.40;;;;;;4965759;28;20031;-52
2020/12/19 07:49:36;;;;;;;4.70;3.58;;;9.60;86.30;;;;;;4957937;28;20074;-52
2020/12/19 07:52:06;;;;;;;7.05;4.25;;;9.60;86.50;;;;;;4959965;28;20458;-52
2020/12/19 07:54:32;;;;;;;7.43;4.43;;;9.60;86.60;;;;;;4959254;28;20057;-53
2020/12/19 07:56:59;;;;;;;12.73;3.92;;;9.60;86.50;;;;;;4961432;28;20035;-52
2020/12/19 07:59:26;;;;;;;5.55;3.50;;;9.60;86.50;;;;;;4958386;28;20023;-52
2020/12/19 08:01:56;;;;;;;6.45;3.53;;;9.60;86.50;;;;;;4964253;28;20437;-52
2020/12/19 08:04:22;;;;;;;5.13;3.55;;;9.60;86.50;;;;;;4965421;28;20023;-53
2020/12/19 08:06:48;;;;;;;5.60;3.65;;;9.60;86.40;;;;;;4964464;28;20058;-52
2020/12/19 08:09:20;;;;;;;6.88;3.60;;;9.60;86.40;;;;;;4961598;28;20031;-52
2020/12/19 08:11:48;;;;;;;6.72;3.65;;;9.60;86.40;;;;;;4955164;28;20039;-52
2020/12/19 08:14:15;;;;;;;7.57;3.80;;;9.60;86.50;;;;;;4967705;28;20126;-52
2020/12/19 08:16:41;;;;;;;3.78;3.17;;;9.60;86.40;;;;;;4968831;28;20481;-52
2020/12/19 08:19:10;;;;;;;24.38;4.60;;;9.60;86.40;;;;;;4970170;28;20365;-52
2020/12/19 08:21:37;;;;;;;6.88;3.65;;;9.60;86.40;;;;;;4973899;28;20026;-52
2020/12/19 08:24:03;;;;;;;5.05;3.47;;;9.60;86.40;;;;;;4972106;28;20031;-52
2020/12/19 08:26:28;;;;;;;5.68;3.08;;;9.60;87.00;;;;;;4975202;28;20023;-52
2020/12/19 08:29:01;;;;;;;4.65;3.45;;;9.60;86.40;;;;;;4973528;28;20377;-52
2020/12/19 08:31:29;;;;;;;11.80;3.75;;;9.60;86.40;;;;;;4970305;28;20031;-52
2020/12/19 08:33:56;;;;;;;6.18;3.97;;;9.70;86.60;;;;;;4971884;28;20031;-53
2020/12/19 08:36:22;;;;;;;3.58;3.22;;;9.60;86.60;;;;;;4969474;28;20078;-53
2020/12/19 08:38:48;;;;;;;5.63;3.45;;;9.60;86.40;;;;;;4976826;28;20106;-52
2020/12/19 08:41:19;;;;;;;5.03;3.60;;;9.60;86.50;;;;;;4972674;28;20376;-52
2020/12/19 08:43:45;;;;;;;6.30;3.60;;;9.60;86.50;;;;;;4977630;28;20026;-52
2020/12/19 08:46:13;;;;;;;14.57;3.53;;;9.60;86.40;;;;;;4974753;28;20031;-53
2020/12/19 08:48:39;;;;;;;6.03;4.45;;;9.60;86.80;;;;;;4969397;28;20158;-53
2020/12/19 08:51:10;;;;;;;18.42;4.20;;;9.60;86.50;;;;;;4967657;28;20034;-53
2020/12/19 08:53:36;;;;;;;8.82;4.13;;;9.60;86.60;;;;;;4978273;28;20019;-52
2020/12/19 08:56:17;;;;;;;6.10;3.53;;;9.70;86.60;;;;;;4971430;28;20559;-52
2020/12/19 08:58:51;;;;;;;9.70;2.95;;;9.70;86.60;;;;;;4968133;28;20475;-52
2020/12/19 09:01:16;;;;;;;5.00;3.03;;;9.70;86.70;;;;;;4970516;28;20049;-52
2020/12/19 09:03:43;;;;;;;6.40;4.00;;;9.70;86.70;;;;;;4971764;28;20035;-52
2020/12/19 09:06:11;;;;;;;6.18;3.60;;;9.70;86.60;;;;;;4963451;28;20094;-52
2020/12/19 09:08:39;;;;;;;5.72;3.97;;;9.70;86.70;;;;;;4966474;28;20086;-52
2020/12/19 09:11:07;;;;;;;6.07;3.83;;;9.70;86.50;;;;;;4972884;28;20061;-52
2020/12/19 09:13:34;;;;;;;4.18;3.28;;;9.70;86.70;;;;;;4969333;28;20456;-52
2020/12/19 09:16:08;;;;;;;4.85;3.42;;;9.70;86.80;;;;;;4969134;28;20030;-52
2020/12/19 09:18:36;;;;;;;6.68;3.65;;;9.70;86.80;;;;;;4964389;28;20038;-53
2020/12/19 09:21:07;;;;;;;11.93;4.10;;;9.70;86.80;;;;;;4968658;28;20515;-52
2020/12/19 09:23:33;;;;;;;7.70;4.75;;;9.70;86.90;;;;;;4957452;28;20349;-53
2020/12/19 09:26:00;;;;;;;8.55;3.90;;;9.70;86.60;;;;;;4967071;28;20020;-52
2020/12/19 09:28:26;;;;;;;9.32;4.32;;;9.70;86.90;;;;;;4967143;28;20033;-52
2020/12/19 09:30:53;;;;;;;7.55;4.07;;;9.70;87.60;;;;;;4968961;28;20101;-52
2020/12/19 09:33:19;;;;;;;4.30;3.10;;;9.70;86.60;;;;;;4962434;28;20054;-53
2020/12/19 09:35:45;;;;;;;7.22;3.65;;;9.70;86.60;;;;;;4963512;28;20512;-52
2020/12/19 09:38:11;;;;;;;6.78;4.65;;;9.70;86.90;;;;;;4975005;28;20038;-52
2020/12/19 09:40:37;;;;;;;8.27;4.03;;;9.70;86.70;;;;;;4970848;28;20027;-52
2020/12/19 09:43:03;;;;;;;9.40;4.82;;;9.70;86.60;;;;;;4969242;28;20491;-53
2020/12/19 09:45:28;;;;;;;8.07;4.30;;;9.70;86.70;;;;;;4969268;28;20450;-52
2020/12/19 09:47:56;;;;;;;12.07;5.90;;;9.70;86.70;;;;;;4973639;28;20360;-52
2020/12/19 09:50:22;;;;;;;11.25;5.38;;;9.70;86.80;;;;;;4969712;28;20476;-52
2020/12/19 09:52:48;;;;;;;12.02;5.93;;;9.70;86.70;;;;;;4959535;28;20056;-52
2020/12/19 09:55:14;;;;;;;11.70;6.10;;;9.70;86.60;;;;;;4966740;28;21429;-52
2020/12/19 09:57:40;;;;;;;11.85;6.22;;;9.70;86.90;;;;;;4962794;28;20027;-52
2020/12/19 10:00:08;;;;;;;12.55;5.65;;;9.70;86.90;;;;;;4964694;28;20035;-52
2020/12/19 10:02:33;;;;;;;8.27;4.82;;;9.70;86.70;;;;;;4968593;28;20045;-52
2020/12/19 10:04:59;;;;;;;13.30;6.28;;;9.70;87.10;;;;;;4970870;28;20458;-52
2020/12/19 10:07:25;;;;;;;13.30;5.70;;;9.70;87.00;;;;;;4962595;28;20039;-52
2020/12/19 10:09:51;;;;;;;8.50;5.43;;;9.70;87.00;;;;;;4971381;28;20179;-52
2020/12/19 10:12:16;;;;;;;12.73;6.18;;;9.70;86.90;;;;;;4972543;28;20054;-52
2020/12/19 10:14:42;;;;;;;10.57;5.60;;;9.70;87.00;;;;;;4976609;28;20090;-52
2020/12/19 10:17:08;;;;;;;13.30;6.57;;;9.70;86.80;;;;;;4969122;28;20032;-53
2020/12/19 10:19:33;;;;;;;11.07;6.50;;;9.70;86.90;;;;;;4965884;28;20027;-52
2020/12/19 10:21:59;;;;;;;11.77;5.38;;;9.70;87.00;;;;;;4967191;28;20067;-53
2020/12/19 10:24:26;;;;;;;13.02;6.93;;;9.70;87.30;;;;;;4965409;28;20468;-52
2020/12/19 10:26:52;;;;;;;16.38;6.95;;;9.70;86.90;;;;;;4959754;28;20401;-52
2020/12/19 10:29:17;;;;;;;9.32;5.38;;;9.70;86.90;;;;;;4962955;28;20063;-52
2020/12/19 10:31:43;;;;;;;19.10;8.57;;;9.70;86.80;;;;;;4969974;28;20030;-52
2020/12/19 10:34:09;;;;;;;15.85;7.40;;;9.70;87.00;;;;;;4963630;28;20365;-52
2020/12/19 10:36:34;;;;;;;9.05;5.97;;;9.80;87.00;;;;;;4966480;28;20131;-52
2020/12/19 10:39:00;;;;;;;12.25;6.55;;;9.70;86.70;;;;;;4968718;28;20030;-52
2020/12/19 10:41:26;;;;;;;10.45;6.20;;;9.70;87.00;;;;;;4967119;28;20030;-52
2020/12/19 10:43:52;;;;;;;8.00;4.78;;;9.80;86.80;;;;;;4968113;28;20023;-52
2020/12/19 10:46:25;;;;;;;11.65;7.00;;;9.80;86.80;;;;;;4966933;28;20547;-52
2020/12/19 10:48:51;;;;;;;11.80;6.78;;;9.80;86.90;;;;;;4964644;28;20042;-52
2020/12/19 10:51:16;;;;;;;10.10;6.22;;;9.80;86.80;;;;;;4964349;28;20027;-52
2020/12/19 10:53:43;;;;;;;18.73;7.85;;;9.80;86.80;;;;;;4965053;28;20042;-52
2020/12/19 10:56:15;;;;;;;16.65;7.82;;;9.80;87.00;;;;;;4963709;28;20045;-52
2020/12/19 10:58:41;;;;;;;16.88;8.55;;;9.80;86.90;;;;;;4967183;28;20030;-52
2020/12/19 11:01:07;;;;;;;15.38;7.45;;;9.80;87.10;;;;;;4959885;28;20364;-52
2020/12/19 11:03:32;;;;;;;15.93;8.02;;;9.80;87.00;;;;;;4966152;28;20023;-52
2020/12/19 11:05:58;;;;;;;16.77;8.50;;;9.80;87.10;;;;;;4960400;28;20066;-53
2020/12/19 11:08:24;;;;;;;18.50;8.75;;;9.80;86.80;;;;;;4961679;28;20031;-52
2020/12/19 11:10:49;;;;;;;13.00;7.57;;;9.80;87.10;;;;;;4960544;28;20527;-53
2020/12/19 11:13:15;;;;;;;13.45;6.93;;;9.80;86.70;;;;;;4971600;28;20038;-53
2020/12/19 11:15:41;;;;;;;14.98;7.50;;;9.80;86.80;;;;;;4970135;28;20050;-52
2020/12/19 11:18:06;;;;;;;14.32;7.78;;;9.80;87.10;;;;;;4968187;28;20113;-52
2020/12/19 11:20:32;;;;;;;17.65;9.20;;;9.80;86.70;;;;;;4965496;28;20497;-52
2020/12/19 11:22:58;;;;;;;17.08;7.82;;;9.80;87.00;;;;;;4965166;28;20035;-52
2020/12/19 11:25:23;;;;;;;11.32;6.20;;;9.80;87.00;;;;;;4969850;28;20038;-52
2020/12/19 11:27:49;;;;;;;17.95;7.38;;;9.80;87.00;;;;;;4962477;28;20045;-52
2020/12/19 11:30:14;;;;;;;19.13;8.43;;;9.80;86.80;;;;;;4964522;28;20039;-52
2020/12/19 11:32:41;;;;;;;15.48;8.02;;;9.80;86.90;;;;;;4959073;28;20034;-53
2020/12/19 11:35:08;;;;;;;22.00;10.27;;;9.80;87.10;;;;;;4964317;28;20039;-52
2020/12/19 11:37:33;;;;;;;24.85;10.20;;;9.80;86.90;;;;;;4967708;28;20106;-53
2020/12/19 11:39:59;;;;;;;22.60;10.30;;;9.80;86.90;;;;;;4965313;28;20453;-53
2020/12/19 11:42:25;;;;;;;17.98;9.30;;;9.80;86.90;;;;;;4963070;28;20170;-52
2020/12/19 11:44:50;;;;;;;17.70;8.43;;;9.80;86.80;;;;;;4961941;28;20062;-52
2020/12/19 11:47:16;;;;;;;15.63;6.90;;;9.80;87.10;;;;;;4961176;28;20051;-53
2020/12/19 11:49:41;;;;;;;20.95;8.05;;;9.80;87.10;;;;;;4969402;28;20031;-52
2020/12/19 11:52:09;;;;;;;21.58;8.98;;;9.80;87.20;;;;;;4970733;28;20027;-52
2020/12/19 11:54:38;;;;;;;17.98;9.23;;;9.80;87.00;;;;;;4964176;28;20096;-53
2020/12/19 11:57:05;;;;;;;15.20;7.70;;;9.80;87.00;;;;;;4968500;28;20019;-53
2020/12/19 11:59:30;;;;;;;14.65;7.03;;;9.80;87.00;;;;;;4969732;28;20030;-53
2020/12/19 12:02:00;;;;;;;18.98;8.15;;;9.80;87.00;;;;;;4964040;28;20038;-52
2020/12/19 12:04:26;;;;;;;19.57;8.10;;;9.80;87.10;;;;;;4965273;28;20038;-52
2020/12/19 12:06:52;;;;;;;15.23;7.63;;;9.80;86.80;;;;;;4969806;28;20342;-52
2020/12/19 12:09:17;;;;;;;16.00;7.47;;;9.80;87.10;;;;;;4964716;28;20174;-52
2020/12/19 12:11:43;;;;;;;16.10;8.80;;;9.80;87.00;;;;;;4964315;28;20441;-53
2020/12/19 12:14:09;;;;;;;16.13;8.55;;;9.80;87.10;;;;;;4962323;28;20030;-53
2020/12/19 12:16:34;;;;;;;13.10;7.15;;;9.80;87.00;;;;;;4965414;28;20041;-52
2020/12/19 12:19:00;;;;;;;21.65;9.35;;;9.80;87.20;;;;;;4964203;28;20322;-52
2020/12/19 12:21:35;;;;;;;18.92;9.05;;;9.80;87.10;;;;;;4966468;28;20054;-53
2020/12/19 12:24:01;;;;;;;20.95;9.77;;;9.80;87.40;;;;;;4965262;28;20442;-52
2020/12/19 12:26:27;;;;;;;23.58;10.23;;;9.80;87.60;;;;;;4963126;28;20126;-52
2020/12/19 12:28:54;;;;;;;23.23;10.95;;;9.80;87.20;;;;;;4965094;28;20396;-52
2020/12/19 12:31:41;;;;;;;27.90;12.32;;;9.80;87.20;;;;;;4965450;28;20027;-53
2020/12/19 12:34:07;;;;;;;29.45;12.10;;;9.80;87.40;;;;;;4959144;28;20081;-53
2020/12/19 12:36:33;;;;;;;33.50;13.05;;;9.80;87.40;;;;;;4965316;28;20035;-52
2020/12/19 12:39:00;;;;;;;32.40;13.90;;;9.80;87.50;;;;;;4965360;28;20369;-52
2020/12/19 12:41:26;;;;;;;31.98;14.70;;;9.80;88.10;;;;;;4961761;28;20045;-53
2020/12/19 12:43:52;;;;;;;23.77;11.23;;;9.80;87.80;;;;;;4970627;28;20043;-53
2020/12/19 12:46:19;;;;;;;29.10;11.20;;;9.70;86.80;;;;;;4973095;28;20329;-53
2020/12/19 12:48:46;;;;;;;20.60;8.38;;;9.40;86.10;;;;;;4968437;28;20482;-52
2020/12/19 12:51:14;;;;;;;15.68;7.22;;;9.40;88.20;;;;;;4963153;28;20372;-53
2020/12/19 12:53:41;;;;;;;16.30;7.28;;;9.40;88.90;;;;;;4968165;28;20027;-52